Terminal Aerodrome Forecast
Issued by NWS

Home | Current Version | Previous Version | Text Only | Print | Product List | Glossary Off
Versions: 1 2 3 4 5 6 7 8 9 10 11 12 13

000
FTUS42 KMHX 280741 AAA
TAFISO
TAF AMD
KISO 280741Z 2808/2906 23008KT P6SM SCT007 BKN120
      TEMPO 2808/2811 BKN008
     FM281100 26010KT P6SM SCT040
     FM282300 23003KT P6SM SKC
      AMD LTD TO CLD VIS AND WIND=

USA.gov is the U.S. government's official web portal to all federal, state and local government web resources and services.